• Join FlightAware (Why Join?)
  • Login
  • US Flag 
12:08PM EST


 

Airport Tracker/Info


-or-


 

Live Flight TrackerFlight Track Log ✈ N500HG ✈ 12-Jun-2013 ✈ KMKG - KTOL

Flight Track Log - Related Links

Times and Time Zones

All times are in EDT time to prevent confusion due to time zone crossing. See the N500HG flight status page for this flight to view local times or setup timezone preferences in your user account.

Time Position Orientation Groundspeed Altitude Reporting Facility
EDT Latitude Longitude Course Direction KTS MPH feet Rate Location/Type
05:03PM 43.1694 -86.1075 132° Southeast 171 197 4,000  Level Chicago Center
05:04PM 43.1650 -86.0311 95° East 192 221 5,500 1,500 Climbing Chicago Center
05:05PM 43.1661 -85.9550 89° East 197 227 7,100 1,597 Climbing Chicago Center
05:06PM 43.1367 -85.8953 124° Southeast 189 217 8,800 1,500 Climbing Chicago Center
05:07PM 42.7246 -85.5882 136° Southeast  Level FlightAware Approximate
05:07PM 43.0889 -85.8511 146° Southeast 201 231 10,200  Level Chicago Center
05:08PM 42.6782 -85.5256 132° Southeast  Level FlightAware Approximate
05:08PM 43.0436 -85.7947 138° Southeast 214 246 11,700  Level Chicago Center
05:09PM 42.9989 -85.7378 137° Southeast 217 250 13,100 1,355 Climbing Chicago Center
05:10PM 42.9547 -85.6758 134° Southeast 225 259 14,500 912 Climbing Chicago Center
05:11PM 42.8972 -85.5939 134° Southeast 252 290 15,000 240 Climbing Chicago Center
05:12PM 42.8419 -85.5167 134° Southeast 281 323 15,000  Level Chicago Center
05:13PM 42.7844 -85.4381 135° Southeast 289 333 15,000  Level Chicago Center
05:14PM 42.7275 -85.3567 134° Southeast 295 339 15,000  Level Chicago Center
05:15PM 42.6697 -85.2767 134° Southeast 296 341 15,000  Level Chicago Center
05:16PM 42.6125 -85.1961 134° Southeast 296 341 15,000  Level Chicago Center
05:17PM 42.5439 -85.0997 134° Southeast 296 341 15,000  Level Chicago Center
05:18PM 42.4847 -85.0250 137° Southeast 290 334 15,000  Level Chicago Center
05:19PM 42.4233 -84.9608 142° Southeast 278 320 15,000  Level Chicago Center
05:20PM 42.3633 -84.8953 141° Southeast 277 319 15,000  Level Chicago Center
05:21PM 42.3058 -84.8264 138° Southeast 275 316 15,000  Level Chicago Center
05:22PM 42.2483 -84.7592 139° Southeast 275 316 15,000  Level Chicago Center
05:23PM 42.1814 -84.6756 137° Southeast 274 315 15,000  Level Chicago Center
05:24PM 42.1272 -84.6000 134° Southeast 279 321 15,000  Level Chicago Center
05:25PM 42.0700 -84.5306 138° Southeast 277 319 15,000 -290 Level Chicago Center
05:26PM 42.0111 -84.4636 140° Southeast 277 319 14,400 -774 Descending Chicago Center
05:27PM 41.9528 -84.3942 138° Southeast 286 329 13,400 -1,091 Descending Chicago Center
05:28PM 41.9028 -84.3358 139° Southeast 282 325 12,400 -2,111 Descending Cleveland Center
05:29PM 41.8533 -84.2519 128° Southeast 282 325 9,600 -2,800 Descending Cleveland Center